Time;durP1;ratioP1;P1;durP2;ratioP2;P2;SDS_P1;SDS_P2;PMS_P1;PMS_P2;Temp;Humidity;BMP_temperature;BMP_pressure;BME280_temperature;BME280_humidity;BME280_pressure;Samples;Min_cycle;Max_cycle;Signal;HPM_P1;HPM_P2
2021/12/27 00:01:12;;;;;;;1.52;1.30;;;20.10;66.60;;;;;;5122821;28;20024;-42
2021/12/27 00:03:39;;;;;;;1.42;1.10;;;20.00;66.50;;;;;;5123021;28;20028;-42
2021/12/27 00:06:09;;;;;;;1.88;1.30;;;20.10;66.40;;;;;;5122890;28;20036;-42
2021/12/27 00:08:41;;;;;;;1.30;1.20;;;20.00;66.40;;;;;;5121531;28;20032;-44
2021/12/27 00:11:08;;;;;;;1.13;1.02;;;20.00;66.30;;;;;;5122783;28;20032;-41
2021/12/27 00:13:34;;;;;;;;;;;20.10;66.30;;;;;;5123416;28;20020;-42
2021/12/27 00:16:00;;;;;;;2.20;1.10;;;20.10;66.30;;;;;;5122824;28;19929;-41
2021/12/27 00:18:26;;;;;;;1.42;1.00;;;20.10;66.20;;;;;;5123039;28;20032;-42
2021/12/27 00:20:52;;;;;;;1.20;1.10;;;20.10;66.10;;;;;;5122303;28;20034;-41
2021/12/27 00:23:18;;;;;;;1.65;1.23;;;20.10;66.20;;;;;;5122752;28;20024;-42
2021/12/27 00:25:44;;;;;;;1.40;1.25;;;20.10;66.20;;;;;;5122737;28;20042;-44
2021/12/27 00:28:10;;;;;;;1.30;1.20;;;20.10;66.20;;;;;;5122271;28;20024;-43
2021/12/27 00:30:38;;;;;;;1.50;1.30;;;20.00;66.20;;;;;;5122298;28;20024;-42
2021/12/27 00:33:04;;;;;;;1.48;1.38;;;20.00;66.30;;;;;;5122700;28;20096;-42
2021/12/27 00:35:32;;;;;;;2.00;1.60;;;20.00;66.30;;;;;;5123993;28;20037;-42
2021/12/27 00:37:59;;;;;;;2.20;1.40;;;20.00;66.30;;;;;;5126253;27;20023;-42
2021/12/27 00:40:25;;;;;;;1.73;1.40;;;20.00;66.20;;;;;;5125039;28;20083;-41
2021/12/27 00:42:51;;;;;;;2.05;1.30;;;20.00;66.20;;;;;;5126091;28;20024;-42
2021/12/27 00:45:18;;;;;;;1.30;1.20;;;20.00;66.20;;;;;;5126018;28;20103;-41
2021/12/27 00:47:44;;;;;;;1.52;1.35;;;20.00;66.20;;;;;;5125906;28;20035;-43
2021/12/27 00:50:10;;;;;;;1.80;1.48;;;20.00;66.10;;;;;;5125709;27;20031;-41
2021/12/27 00:52:36;;;;;;;2.30;1.65;;;20.00;66.00;;;;;;5125840;28;20105;-41
2021/12/27 00:55:05;;;;;;;2.35;1.88;;;20.10;66.10;;;;;;5125881;28;20028;-41
2021/12/27 00:57:31;;;;;;;1.95;1.60;;;20.00;65.90;;;;;;5126077;28;20011;-43
2021/12/27 00:59:57;;;;;;;2.00;1.73;;;20.00;65.90;;;;;;5125845;28;20032;-43
2021/12/27 01:02:23;;;;;;;2.60;1.70;;;20.00;65.80;;;;;;5125615;28;20439;-41
2021/12/27 01:04:49;;;;;;;2.03;1.67;;;20.00;65.70;;;;;;5125748;28;20034;-41
2021/12/27 01:07:15;;;;;;;1.77;1.65;;;20.00;65.70;;;;;;5125092;28;20028;-41
2021/12/27 01:15:32;;;;;;;2.40;2.00;;;20.00;65.60;;;;;;5125663;28;20075;-42
2021/12/27 01:17:45;;;;;;;2.63;1.77;;;20.00;65.60;;;;;;5125094;28;20027;-42
2021/12/27 01:20:13;;;;;;;2.13;1.92;;;20.00;65.60;;;;;;5125284;28;20448;-41
2021/12/27 01:22:39;;;;;;;2.30;1.92;;;20.00;65.50;;;;;;5125247;28;20035;-42
2021/12/27 01:25:06;;;;;;;2.00;1.80;;;20.00;65.60;;;;;;5125474;27;20027;-42
2021/12/27 01:27:32;;;;;;;2.35;2.13;;;20.00;65.60;;;;;;5125297;28;20043;-41
2021/12/27 01:29:59;;;;;;;2.73;1.77;;;20.00;65.40;;;;;;5125453;28;20084;-41
2021/12/27 01:32:29;;;;;;;2.38;1.77;;;20.00;65.40;;;;;;5125029;28;20077;-42
2021/12/27 01:34:56;;;;;;;1.90;1.60;;;20.00;65.30;;;;;;5124623;28;20546;-42
2021/12/27 01:37:22;;;;;;;2.10;1.90;;;20.00;65.20;;;;;;5124771;28;20053;-42
2021/12/27 01:39:48;;;;;;;1.90;1.70;;;20.00;65.20;;;;;;5123972;28;20047;-42
2021/12/27 01:42:14;;;;;;;2.75;2.03;;;20.00;65.50;;;;;;5124666;27;20031;-46
2021/12/27 01:44:41;;;;;;;3.15;2.00;;;20.00;65.10;;;;;;5124908;28;20777;-41
2021/12/27 01:47:09;;;;;;;2.55;2.08;;;19.90;65.10;;;;;;5123856;28;20046;-42
2021/12/27 01:49:36;;;;;;;4.68;2.30;;;19.90;65.00;;;;;;5124846;28;20032;-42
2021/12/27 01:52:03;;;;;;;2.60;2.10;;;19.90;65.70;;;;;;5124133;28;20040;-42
2021/12/27 01:54:30;;;;;;;2.22;2.03;;;19.90;65.00;;;;;;5124811;28;20083;-42
2021/12/27 01:56:56;;;;;;;2.50;2.17;;;19.90;64.90;;;;;;5124218;28;20031;-42
2021/12/27 01:59:22;;;;;;;2.75;2.28;;;19.90;64.90;;;;;;5124702;28;20653;-42
2021/12/27 02:01:48;;;;;;;3.03;2.35;;;19.90;64.90;;;;;;5124357;28;20039;-42
2021/12/27 02:04:14;;;;;;;3.88;2.10;;;19.90;64.80;;;;;;5124553;28;20050;-42
2021/12/27 02:06:40;;;;;;;5.57;2.70;;;19.90;64.90;;;;;;5124058;28;20050;-41
2021/12/27 02:09:06;;;;;;;3.72;2.22;;;19.90;64.80;;;;;;5123576;28;20059;-42
2021/12/27 02:11:34;;;;;;;2.85;2.40;;;19.90;64.70;;;;;;5124321;28;20050;-42
2021/12/27 02:14:02;;;;;;;2.50;2.10;;;19.90;64.80;;;;;;5124189;28;20024;-41
2021/12/27 02:16:28;;;;;;;2.80;2.38;;;19.90;64.70;;;;;;5124354;28;20028;-41
2021/12/27 02:18:54;;;;;;;3.30;2.35;;;19.90;64.70;;;;;;5124043;27;20023;-41
2021/12/27 02:21:20;;;;;;;8.77;2.50;;;19.90;64.60;;;;;;5123724;28;20114;-41
2021/12/27 02:23:49;;;;;;;3.23;2.40;;;19.90;64.60;;;;;;5124002;28;20692;-41
2021/12/27 02:26:15;;;;;;;2.47;2.28;;;19.80;64.50;;;;;;5123903;28;20035;-42
2021/12/27 02:28:41;;;;;;;2.97;2.25;;;19.80;64.40;;;;;;5123904;28;20484;-41
2021/12/27 02:31:07;;;;;;;3.65;2.42;;;19.80;64.40;;;;;;5124317;28;20031;-42
2021/12/27 02:33:36;;;;;;;2.65;1.92;;;19.80;64.40;;;;;;5123663;28;20024;-42
2021/12/27 02:36:03;;;;;;;3.10;2.70;;;19.80;64.40;;;;;;5103365;28;20071;-41
2021/12/27 02:38:32;;;;;;;3.08;2.03;;;19.80;64.30;;;;;;5104719;28;20031;-43
2021/12/27 02:40:58;;;;;;;3.42;2.30;;;19.80;64.40;;;;;;5123527;28;20058;-41
2021/12/27 02:43:26;;;;;;;3.63;2.70;;;19.80;64.40;;;;;;5123503;28;20109;-43
2021/12/27 02:45:59;;;;;;;3.58;2.50;;;19.70;64.20;;;;;;5123683;28;20035;-43
2021/12/27 02:48:28;;;;;;;3.03;2.50;;;19.70;64.20;;;;;;5123810;28;20031;-42
2021/12/27 02:50:55;;;;;;;2.78;2.25;;;19.80;64.30;;;;;;5123307;28;20032;-41
2021/12/27 02:53:21;;;;;;;3.08;2.67;;;19.70;64.20;;;;;;5123045;28;20024;-44
2021/12/27 02:55:48;;;;;;;4.03;2.87;;;19.70;64.20;;;;;;5123708;28;20043;-42
2021/12/27 02:58:15;;;;;;;3.15;2.50;;;19.70;64.10;;;;;;5123409;28;20035;-42
2021/12/27 03:00:47;;;;;;;3.25;2.55;;;19.70;64.20;;;;;;5123579;28;20035;-42
2021/12/27 03:03:13;;;;;;;2.90;2.55;;;19.70;64.90;;;;;;5121814;28;20062;-43
2021/12/27 03:05:41;;;;;;;3.28;2.67;;;19.70;64.20;;;;;;5123051;28;20085;-41
2021/12/27 03:08:13;;;;;;;2.80;2.50;;;19.70;64.20;;;;;;5123107;28;20325;-41
2021/12/27 03:10:40;;;;;;;3.55;2.85;;;19.70;64.20;;;;;;5122846;28;20023;-42
2021/12/27 03:13:06;;;;;;;3.47;2.55;;;19.70;64.10;;;;;;5123350;28;20038;-42
2021/12/27 03:15:32;;;;;;;3.95;2.88;;;19.60;64.10;;;;;;5123011;28;20020;-42
2021/12/27 03:17:58;;;;;;;4.07;3.17;;;19.60;64.10;;;;;;5123148;28;20096;-41
2021/12/27 03:20:26;;;;;;;3.03;2.50;;;19.60;64.10;;;;;;5123070;28;20063;-42
2021/12/27 03:22:52;;;;;;;;;;;19.60;64.10;;;;;;5123149;28;20035;-43
2021/12/27 03:25:20;;;;;;;4.63;2.75;;;19.50;64.00;;;;;;5123237;28;19991;-42
2021/12/27 03:27:46;;;;;;;3.38;2.78;;;19.50;64.00;;;;;;5123117;28;20045;-41
2021/12/27 03:30:14;;;;;;;4.40;3.03;;;19.50;64.00;;;;;;5123083;28;20047;-42
2021/12/27 03:32:41;;;;;;;4.72;2.75;;;19.50;64.00;;;;;;5122852;28;20031;-42
2021/12/27 03:35:11;;;;;;;2.70;2.50;;;19.50;64.00;;;;;;5123202;28;20026;-42
2021/12/27 03:37:43;;;;;;;5.03;3.17;;;19.50;64.00;;;;;;5122502;28;20108;-43
2021/12/27 03:40:10;;;;;;;3.38;2.80;;;19.50;64.00;;;;;;5121824;28;20023;-41
2021/12/27 03:42:36;;;;;;;3.53;2.83;;;19.50;64.10;;;;;;5122662;28;20034;-42
2021/12/27 03:45:03;;;;;;;3.40;2.88;;;19.50;64.00;;;;;;5122621;28;20042;-43
2021/12/27 03:47:29;;;;;;;3.20;2.78;;;19.50;64.00;;;;;;5122781;28;20032;-42
2021/12/27 03:49:55;;;;;;;4.22;2.95;;;19.40;64.00;;;;;;5122885;28;20036;-42
2021/12/27 03:52:21;;;;;;;3.83;2.85;;;19.40;64.00;;;;;;5122253;28;20049;-43
2021/12/27 03:54:47;;;;;;;3.72;2.88;;;19.40;64.00;;;;;;5122639;28;20035;-43
2021/12/27 03:57:15;;;;;;;3.78;2.88;;;19.40;64.00;;;;;;5122900;28;20032;-41
2021/12/27 04:02:11;;;;;;;3.53;2.65;;;19.40;63.90;;;;;;5122698;28;20036;-42
2021/12/27 04:04:38;;;;;;;3.70;2.67;;;19.40;63.90;;;;;;5122483;28;20028;-41
2021/12/27 04:07:04;;;;;;;3.22;2.88;;;19.40;63.90;;;;;;5122238;28;20065;-42
2021/12/27 04:09:30;;;;;;;3.03;2.72;;;19.40;63.90;;;;;;5111564;28;20088;-41
2021/12/27 04:11:56;;;;;;;4.45;2.80;;;19.40;63.90;;;;;;5106154;28;20150;-41
2021/12/27 04:14:22;;;;;;;4.25;3.22;;;19.40;63.90;;;;;;5105941;28;20030;-41
2021/12/27 04:16:49;;;;;;;3.53;2.95;;;19.30;63.80;;;;;;5106054;28;20092;-44
2021/12/27 04:19:15;;;;;;;3.35;3.03;;;19.30;63.80;;;;;;5106060;28;20800;-43
2021/12/27 04:21:41;;;;;;;4.45;2.90;;;19.30;63.80;;;;;;5105951;28;20084;-42
2021/12/27 04:24:07;;;;;;;4.70;2.92;;;19.30;63.80;;;;;;5119201;28;20016;-42
2021/12/27 04:26:33;;;;;;;4.47;3.00;;;19.30;63.80;;;;;;5126487;28;20115;-42
2021/12/27 04:28:59;;;;;;;4.70;3.00;;;19.30;63.80;;;;;;5126164;28;20035;-42
2021/12/27 04:31:25;;;;;;;3.97;2.95;;;19.20;63.80;;;;;;5126235;28;20035;-42
2021/12/27 04:33:51;;;;;;;4.30;2.90;;;19.20;63.80;;;;;;5125982;28;20101;-42
2021/12/27 04:36:18;;;;;;;4.28;3.15;;;19.20;63.80;;;;;;5126192;28;20028;-42
2021/12/27 04:38:44;;;;;;;3.53;2.97;;;19.20;63.80;;;;;;5124708;28;20032;-42
2021/12/27 04:41:12;;;;;;;4.55;3.25;;;19.20;63.80;;;;;;5126219;28;20023;-42
2021/12/27 04:43:38;;;;;;;5.85;3.22;;;19.20;63.90;;;;;;5125764;28;20023;-42
2021/12/27 04:46:04;;;;;;;4.05;3.00;;;19.20;63.80;;;;;;5124221;28;20036;-42
2021/12/27 04:48:31;;;;;;;3.20;2.90;;;19.20;63.80;;;;;;5126192;27;20019;-41
2021/12/27 04:50:57;;;;;;;3.72;2.97;;;19.20;63.80;;;;;;5125820;28;20040;-42
2021/12/27 04:53:23;;;;;;;3.60;2.80;;;19.10;63.80;;;;;;5125491;28;20024;-42
2021/12/27 04:55:49;;;;;;;3.72;3.08;;;19.10;63.80;;;;;;5125892;28;20818;-42
2021/12/27 04:58:16;;;;;;;4.15;3.30;;;19.10;63.70;;;;;;5125907;28;20027;-41
2021/12/27 05:00:43;;;;;;;4.03;3.30;;;19.10;63.70;;;;;;5125601;28;20024;-42
2021/12/27 05:03:09;;;;;;;3.20;2.73;;;19.10;63.70;;;;;;5125705;28;20031;-42
2021/12/27 05:05:36;;;;;;;3.35;3.00;;;19.10;63.70;;;;;;5125529;28;20035;-42
2021/12/27 05:08:03;;;;;;;5.25;3.17;;;19.10;63.80;;;;;;5125365;28;20043;-41
2021/12/27 05:10:29;;;;;;;3.13;2.17;;;19.00;63.70;;;;;;5124281;28;20042;-41
2021/12/27 05:12:55;;;;;;;3.80;2.92;;;19.10;63.70;;;;;;5125112;28;20035;-41
2021/12/27 05:15:21;;;;;;;3.67;3.13;;;19.00;63.70;;;;;;5124961;28;20081;-41
2021/12/27 05:17:47;;;;;;;3.97;2.97;;;19.00;63.80;;;;;;5125542;28;20037;-42
2021/12/27 05:20:14;;;;;;;3.80;2.80;;;19.00;63.80;;;;;;5125522;28;20082;-42
2021/12/27 05:22:40;;;;;;;5.05;3.38;;;19.00;63.80;;;;;;5124668;28;20049;-41
2021/12/27 05:25:07;;;;;;;4.18;3.10;;;19.00;63.80;;;;;;5125107;28;20024;-42
2021/12/27 05:27:33;;;;;;;3.95;2.97;;;18.90;63.80;;;;;;5125327;28;20058;-42
2021/12/27 05:29:59;;;;;;;4.50;3.08;;;18.90;63.80;;;;;;5125292;28;20088;-42
2021/12/27 05:32:25;;;;;;;4.80;3.30;;;18.90;63.70;;;;;;5125141;27;20038;-42
2021/12/27 05:34:51;;;;;;;5.07;3.42;;;18.90;63.70;;;;;;5124770;28;20026;-42
2021/12/27 05:37:17;;;;;;;3.72;3.08;;;18.90;63.70;;;;;;5124782;28;20476;-42
2021/12/27 05:39:43;;;;;;;4.38;3.35;;;18.90;63.70;;;;;;5123653;28;20131;-42
2021/12/27 05:42:10;;;;;;;3.50;3.13;;;18.90;63.80;;;;;;5124908;28;20091;-42
2021/12/27 05:44:36;;;;;;;4.03;3.35;;;18.90;63.80;;;;;;5123986;28;20048;-41
2021/12/27 05:47:02;;;;;;;3.97;3.05;;;18.80;63.70;;;;;;5124388;28;20043;-41
2021/12/27 05:49:28;;;;;;;6.85;3.33;;;18.80;63.70;;;;;;5124647;28;20132;-41
2021/12/27 05:51:54;;;;;;;3.67;3.20;;;18.90;63.70;;;;;;5124410;28;20054;-41
2021/12/27 05:54:21;;;;;;;3.10;2.80;;;18.80;63.70;;;;;;5124414;28;20045;-42
2021/12/27 05:56:47;;;;;;;2.78;2.17;;;18.80;63.70;;;;;;5124503;28;20083;-41
2021/12/27 05:59:15;;;;;;;5.55;3.80;;;18.80;63.70;;;;;;5124159;28;20023;-44
2021/12/27 06:01:41;;;;;;;4.38;3.10;;;18.80;63.80;;;;;;5124567;28;20112;-41
2021/12/27 06:04:07;;;;;;;3.60;2.95;;;18.80;63.90;;;;;;5124377;28;20058;-42
2021/12/27 06:06:34;;;;;;;3.30;3.00;;;18.70;63.80;;;;;;5124143;28;20062;-41
2021/12/27 06:09:00;;;;;;;3.90;3.30;;;18.70;63.80;;;;;;5117327;28;20032;-42
2021/12/27 06:11:26;;;;;;;5.07;3.10;;;18.80;63.90;;;;;;5103823;28;20508;-42
2021/12/27 06:13:52;;;;;;;3.70;2.95;;;18.70;63.80;;;;;;5103856;28;20135;-41
2021/12/27 06:16:20;;;;;;;3.67;3.38;;;18.70;63.80;;;;;;5103418;28;20110;-41
2021/12/27 06:18:47;;;;;;;4.10;3.15;;;18.70;63.80;;;;;;5110345;28;20016;-41
2021/12/27 06:21:13;;;;;;;5.05;3.10;;;18.70;63.80;;;;;;5124012;28;20038;-41
2021/12/27 06:23:39;;;;;;;3.30;3.00;;;18.70;63.80;;;;;;5122541;28;20030;-42
2021/12/27 06:26:05;;;;;;;3.80;3.00;;;18.70;63.80;;;;;;5123439;28;20550;-41
2021/12/27 06:28:32;;;;;;;4.28;3.20;;;18.70;63.80;;;;;;5123889;28;20028;-42
2021/12/27 06:30:59;;;;;;;4.18;3.08;;;18.60;63.80;;;;;;5124115;28;20036;-42
2021/12/27 06:33:25;;;;;;;4.72;3.25;;;18.60;63.80;;;;;;5123365;28;20024;-41
2021/12/27 06:35:51;;;;;;;3.53;2.63;;;18.60;63.80;;;;;;5123614;28;20012;-41
2021/12/27 06:38:17;;;;;;;4.22;3.47;;;18.60;63.80;;;;;;5122087;28;20054;-43
2021/12/27 06:40:43;;;;;;;4.30;2.97;;;18.60;63.80;;;;;;5123710;28;20020;-42
2021/12/27 06:43:09;;;;;;;3.65;3.22;;;18.60;63.80;;;;;;5123689;28;20038;-42
2021/12/27 06:45:35;;;;;;;4.28;3.33;;;18.60;63.90;;;;;;5123405;28;20019;-41
2021/12/27 06:48:01;;;;;;;3.40;2.78;;;18.60;63.90;;;;;;5123128;28;20066;-42
2021/12/27 06:50:28;;;;;;;4.22;3.03;;;18.60;63.90;;;;;;5123609;28;20034;-42
2021/12/27 06:52:54;;;;;;;3.35;3.05;;;18.50;63.80;;;;;;5123085;27;20442;-42
2021/12/27 06:55:20;;;;;;;5.05;3.40;;;18.60;63.90;;;;;;5123719;28;20023;-43
2021/12/27 06:57:46;;;;;;;6.90;3.58;;;18.50;63.90;;;;;;5123146;28;20028;-42
2021/12/27 07:00:13;;;;;;;3.45;2.85;;;18.50;63.90;;;;;;5122991;28;20038;-41
2021/12/27 07:02:39;;;;;;;3.80;3.10;;;18.50;63.90;;;;;;5123539;28;20100;-41
2021/12/27 07:05:06;;;;;;;4.22;3.00;;;18.50;63.90;;;;;;5121951;28;20031;-42
2021/12/27 07:07:32;;;;;;;4.45;3.55;;;18.50;63.90;;;;;;5122488;28;20035;-44
2021/12/27 07:09:58;;;;;;;4.53;3.47;;;18.50;63.90;;;;;;5121050;28;20039;-41
2021/12/27 07:12:24;;;;;;;5.30;3.35;;;18.50;64.00;;;;;;5123239;28;20037;-41
2021/12/27 07:14:50;;;;;;;5.88;3.45;;;18.40;63.90;;;;;;5123258;28;20430;-42
2021/12/27 07:17:17;;;;;;;5.32;3.75;;;18.40;63.90;;;;;;5122583;28;20038;-41
2021/12/27 07:19:43;;;;;;;4.10;3.08;;;18.40;63.90;;;;;;5123140;28;20073;-41
2021/12/27 07:22:09;;;;;;;4.47;3.05;;;18.40;63.90;;;;;;5123073;28;20027;-41
2021/12/27 07:24:35;;;;;;;3.63;3.28;;;18.40;63.90;;;;;;5122863;28;20024;-41
2021/12/27 07:27:01;;;;;;;4.00;3.20;;;18.40;63.90;;;;;;5122841;28;20035;-41
2021/12/27 07:29:27;;;;;;;5.80;3.55;;;18.30;63.90;;;;;;5122735;28;20024;-41
2021/12/27 07:31:53;;;;;;;5.20;3.58;;;18.40;63.90;;;;;;5123117;28;20680;-41
2021/12/27 07:34:24;;;;;;;4.53;3.58;;;18.40;63.90;;;;;;5123249;28;20031;-41
2021/12/27 07:36:53;;;;;;;8.77;3.75;;;18.30;63.90;;;;;;5122787;28;20031;-43
2021/12/27 07:39:19;;;;;;;5.47;3.85;;;18.30;63.90;;;;;;5113162;28;20032;-43
2021/12/27 07:41:46;;;;;;;4.78;3.92;;;18.30;64.00;;;;;;5102559;28;20031;-42
2021/12/27 07:44:12;;;;;;;5.35;3.70;;;18.30;64.10;;;;;;5102777;28;20032;-42
2021/12/27 07:46:42;;;;;;;5.03;3.75;;;18.30;64.10;;;;;;5106401;28;20040;-43
2021/12/27 07:49:11;;;;;;;4.82;3.78;;;18.30;64.10;;;;;;5115983;28;20035;-43
2021/12/27 07:51:38;;;;;;;6.07;3.92;;;18.30;64.10;;;;;;5126508;28;20051;-43
2021/12/27 07:54:04;;;;;;;7.05;4.10;;;18.30;64.10;;;;;;5126813;28;20053;-41
2021/12/27 07:56:30;;;;;;;4.87;3.20;;;18.30;64.10;;;;;;5127282;28;20487;-42
2021/12/27 07:58:56;;;;;;;8.20;4.25;;;18.20;64.00;;;;;;5126411;28;20027;-41
2021/12/27 08:01:23;;;;;;;5.20;3.72;;;18.20;64.10;;;;;;5126961;28;20035;-41
2021/12/27 08:03:49;;;;;;;5.35;4.05;;;18.20;64.10;;;;;;5126899;28;20072;-42
2021/12/27 08:06:15;;;;;;;6.45;4.15;;;18.20;64.10;;;;;;5126681;28;20059;-41
2021/12/27 08:08:41;;;;;;;6.00;3.95;;;18.20;64.10;;;;;;5125528;27;20145;-41
2021/12/27 08:11:07;;;;;;;4.65;3.83;;;18.20;64.20;;;;;;5126713;28;20032;-41
2021/12/27 08:13:35;;;;;;;5.25;3.92;;;18.20;64.10;;;;;;5126598;28;20023;-41
2021/12/27 08:16:01;;;;;;;6.93;4.30;;;18.20;64.10;;;;;;5126658;28;20027;-41
2021/12/27 08:18:29;;;;;;;5.18;4.05;;;18.20;64.10;;;;;;5126341;28;20028;-41
2021/12/27 08:20:56;;;;;;;5.57;4.63;;;18.20;64.10;;;;;;5126487;28;20027;-41
2021/12/27 08:23:22;;;;;;;3.30;2.70;;;18.20;64.10;;;;;;5126259;28;20051;-41
2021/12/27 08:25:48;;;;;;;5.55;4.00;;;18.20;64.10;;;;;;5126238;28;20248;-43
2021/12/27 08:28:14;;;;;;;5.70;4.55;;;18.10;64.10;;;;;;5126090;28;20051;-42
2021/12/27 08:30:40;;;;;;;5.97;4.38;;;18.10;64.10;;;;;;5126346;28;20815;-41
2021/12/27 08:33:06;;;;;;;5.80;4.57;;;18.10;64.10;;;;;;5126045;27;20077;-41
2021/12/27 08:35:35;;;;;;;5.22;4.18;;;18.10;64.20;;;;;;5126173;28;20089;-42
2021/12/27 08:38:01;;;;;;;5.63;4.38;;;18.10;64.20;;;;;;5125947;28;20047;-41
2021/12/27 08:40:27;;;;;;;5.57;4.50;;;18.10;64.20;;;;;;5106775;28;20648;-41
2021/12/27 08:42:54;;;;;;;5.70;4.38;;;18.10;64.20;;;;;;5105787;28;20139;-41
2021/12/27 08:45:20;;;;;;;5.65;4.20;;;18.10;64.20;;;;;;5105737;28;20073;-41
2021/12/27 08:47:46;;;;;;;6.07;4.53;;;18.10;64.20;;;;;;5105455;28;20066;-41
2021/12/27 08:50:17;;;;;;;6.82;4.90;;;18.10;64.20;;;;;;5114175;28;20027;-41
2021/12/27 08:52:43;;;;;;;7.53;4.75;;;18.10;64.30;;;;;;5124525;28;20075;-41
2021/12/27 08:55:10;;;;;;;7.03;4.57;;;18.00;64.20;;;;;;5124423;28;20020;-41
2021/12/27 08:57:36;;;;;;;9.90;4.50;;;18.00;64.20;;;;;;5124414;28;20411;-42
2021/12/27 09:00:05;;;;;;;6.50;4.50;;;18.00;64.30;;;;;;5124488;28;20047;-40
2021/12/27 09:02:31;;;;;;;6.05;4.70;;;18.00;64.30;;;;;;5124638;28;20035;-41
2021/12/27 09:04:57;;;;;;;5.68;4.63;;;18.00;64.30;;;;;;5124557;28;20023;-41
2021/12/27 09:07:23;;;;;;;6.00;5.07;;;18.00;64.40;;;;;;5124348;28;20035;-41
2021/12/27 09:09:49;;;;;;;6.80;5.20;;;18.00;64.30;;;;;;5122874;28;20031;-41
2021/12/27 09:12:15;;;;;;;5.47;4.43;;;18.00;64.40;;;;;;5124134;28;20023;-41
2021/12/27 09:14:41;;;;;;;6.13;4.63;;;18.00;64.40;;;;;;5124306;28;20564;-41
2021/12/27 09:17:07;;;;;;;6.53;4.65;;;17.90;64.30;;;;;;5124074;28;20027;-41
2021/12/27 09:19:34;;;;;;;7.18;5.32;;;17.90;64.40;;;;;;5124028;28;20019;-41
2021/12/27 09:22:00;;;;;;;6.78;4.68;;;17.90;64.40;;;;;;5124015;28;20034;-41
2021/12/27 09:24:28;;;;;;;5.35;4.85;;;17.90;64.40;;;;;;5123743;28;20031;-41
2021/12/27 09:26:54;;;;;;;6.53;5.30;;;17.90;64.40;;;;;;5124165;28;20059;-42
2021/12/27 09:29:20;;;;;;;6.65;5.25;;;17.90;64.40;;;;;;5123639;28;20036;-41
2021/12/27 09:31:46;;;;;;;6.38;4.93;;;17.90;64.50;;;;;;5124145;28;20027;-41
2021/12/27 09:34:12;;;;;;;7.75;5.38;;;17.90;64.40;;;;;;5124158;28;20400;-41
2021/12/27 09:36:38;;;;;;;5.50;4.90;;;17.90;64.50;;;;;;5123910;28;20039;-41
2021/12/27 09:39:05;;;;;;;6.03;5.10;;;17.90;64.40;;;;;;5116348;28;20028;-41
2021/12/27 09:41:31;;;;;;;6.25;5.05;;;17.90;64.50;;;;;;5103421;28;20029;-42
2021/12/27 09:43:57;;;;;;;6.35;5.28;;;17.90;64.50;;;;;;5116186;28;20016;-41
2021/12/27 09:46:23;;;;;;;6.90;5.80;;;17.90;64.50;;;;;;5123801;28;20526;-41
2021/12/27 09:48:50;;;;;;;6.40;5.25;;;17.90;64.50;;;;;;5123867;28;20033;-41
2021/12/27 09:51:17;;;;;;;7.28;5.75;;;17.90;64.60;;;;;;5056537;28;1902506;-41
2021/12/27 09:53:43;;;;;;;5.70;5.10;;;17.90;64.60;;;;;;5124446;28;20673;-40
2021/12/27 09:56:10;;;;;;;6.85;5.50;;;17.80;64.50;;;;;;5123133;28;20038;-41
2021/12/27 09:58:36;;;;;;;6.30;4.90;;;17.80;64.50;;;;;;5124691;28;20028;-41
2021/12/27 10:01:03;;;;;;;5.90;5.30;;;17.80;64.50;;;;;;5124499;28;20020;-41
2021/12/27 10:03:44;;;;;;;5.20;3.78;;;17.80;64.50;;;;;;5124482;28;20647;-41
2021/12/27 10:06:11;;;;;;;8.23;5.78;;;17.80;64.50;;;;;;5120493;28;20036;-41
2021/12/27 10:08:37;;;;;;;6.28;5.05;;;17.80;64.50;;;;;;5122599;28;20062;-41
2021/12/27 10:11:03;;;;;;;5.82;5.22;;;17.80;64.60;;;;;;5124260;28;20028;-41
2021/12/27 10:13:29;;;;;;;5.75;5.15;;;17.80;64.60;;;;;;5124321;28;20024;-44
2021/12/27 10:15:55;;;;;;;6.43;5.47;;;17.80;64.60;;;;;;5124307;28;20054;-41
2021/12/27 10:18:22;;;;;;;6.75;5.68;;;17.80;64.70;;;;;;5124289;28;20047;-42
2021/12/27 10:20:48;;;;;;;6.85;5.45;;;17.80;64.70;;;;;;5124006;28;20023;-41
2021/12/27 10:23:18;;;;;;;6.53;5.63;;;17.80;64.70;;;;;;5123693;28;20036;-41
2021/12/27 10:25:47;;;;;;;6.93;5.28;;;17.80;64.70;;;;;;5123975;28;20036;-40
2021/12/27 10:28:13;;;;;;;7.05;5.63;;;17.80;64.70;;;;;;5123842;28;20035;-40
2021/12/27 10:30:44;;;;;;;6.35;5.50;;;17.80;64.70;;;;;;5123856;28;20666;-41
2021/12/27 10:33:16;;;;;;;7.60;5.47;;;17.80;64.80;;;;;;5123990;28;20028;-41
2021/12/27 10:35:47;;;;;;;6.25;5.15;;;17.80;64.70;;;;;;5122606;28;20031;-41
2021/12/27 10:38:25;;;;;;;6.97;5.20;;;17.70;64.60;;;;;;5123277;28;20111;-41
2021/12/27 10:41:01;;;;;;;;;;;17.80;64.70;;;;;;5103625;28;20028;-42
2021/12/27 10:43:38;;;;;;;7.57;5.80;;;17.70;64.60;;;;;;5106091;28;20752;-41
2021/12/27 10:46:06;;;;;;;6.35;5.75;;;17.70;64.60;;;;;;5155137;27;20040;-41
2021/12/27 10:48:35;;;;;;;;;;;17.70;64.60;;;;;;5119634;28;20032;-40
2021/12/27 10:51:01;;;;;;;5.95;5.35;;;17.70;64.60;;;;;;5102734;28;19920;-42
2021/12/27 10:53:28;;;;;;;6.65;5.60;;;17.70;64.70;;;;;;5110985;28;20043;-41
2021/12/27 10:55:54;;;;;;;8.85;5.82;;;17.70;64.70;;;;;;5121984;28;20106;-40
2021/12/27 10:58:27;;;;;;;7.28;5.97;;;17.70;64.70;;;;;;5105223;28;20039;-40
2021/12/27 11:01:01;;;;;;;6.45;5.47;;;17.70;64.80;;;;;;5123261;28;20024;-41
2021/12/27 11:03:31;;;;;;;5.93;5.32;;;17.70;64.80;;;;;;5123449;28;20020;-41
2021/12/27 11:05:57;;;;;;;7.25;5.38;;;17.70;64.80;;;;;;5123411;28;20031;-41
2021/12/27 11:08:24;;;;;;;8.03;5.70;;;17.70;64.80;;;;;;5121286;28;20027;-41
2021/12/27 11:10:50;;;;;;;7.07;5.68;;;17.70;64.80;;;;;;5102581;28;20088;-40
2021/12/27 11:13:17;;;;;;;5.82;5.22;;;17.70;64.80;;;;;;5102842;28;20032;-41
2021/12/27 11:15:43;;;;;;;6.05;5.18;;;17.70;64.80;;;;;;5109336;28;20068;-41
2021/12/27 11:18:09;;;;;;;6.57;5.90;;;17.70;64.80;;;;;;5123350;28;20076;-41
2021/12/27 11:20:35;;;;;;;6.55;5.40;;;17.70;64.90;;;;;;5122866;28;20412;-41
2021/12/27 11:23:02;;;;;;;6.83;6.10;;;17.70;64.80;;;;;;5121431;28;20036;-41
2021/12/27 11:25:37;;;;;;;6.13;5.53;;;17.70;64.90;;;;;;5123007;28;20256;-41
2021/12/27 11:28:22;;;;;;;6.10;5.50;;;17.60;64.90;;;;;;5123152;28;20099;-41
2021/12/27 11:30:48;;;;;;;6.10;5.38;;;17.60;64.90;;;;;;5122970;28;20027;-41
2021/12/27 11:33:19;;;;;;;6.05;5.43;;;17.60;64.90;;;;;;5123193;28;20031;-41
2021/12/27 11:35:51;;;;;;;6.13;5.60;;;17.70;65.60;;;;;;5123087;28;20063;-40
2021/12/27 11:38:31;;;;;;;7.60;5.88;;;17.60;64.80;;;;;;5122371;28;20024;-41
2021/12/27 11:40:58;;;;;;;6.45;5.80;;;17.60;64.80;;;;;;5102352;28;20028;-41
2021/12/27 11:43:24;;;;;;;6.57;5.97;;;17.60;64.80;;;;;;5102597;28;20427;-40
2021/12/27 11:45:53;;;;;;;6.13;5.45;;;17.60;64.80;;;;;;5101111;28;20028;-41
2021/12/27 11:48:21;;;;;;;6.63;5.78;;;17.60;64.80;;;;;;5105297;28;20046;-40
2021/12/27 11:50:56;;;;;;;6.60;5.95;;;17.60;64.80;;;;;;5122531;28;20015;-41
2021/12/27 11:53:53;;;;;;;6.68;5.50;;;17.60;64.90;;;;;;5122651;28;20714;-40
2021/12/27 11:56:41;;;;;;;6.20;5.60;;;17.60;64.90;;;;;;5121727;28;20046;-41
2021/12/27 11:59:25;;;;;;;;;;;17.60;64.90;;;;;;5123125;28;20041;-42
2021/12/27 12:01:56;;;;;;;6.53;5.43;;;17.60;64.90;;;;;;5122587;28;19949;-41
2021/12/27 12:04:40;;;;;;;5.45;4.93;;;17.60;64.90;;;;;;5122746;28;20027;-40
2021/12/27 12:07:08;;;;;;;6.15;5.45;;;17.60;65.00;;;;;;5119253;28;20059;-40
2021/12/27 12:09:45;;;;;;;6.03;5.35;;;17.60;65.00;;;;;;5110631;28;20182;-42
2021/12/27 12:12:13;;;;;;;6.65;5.50;;;17.60;65.00;;;;;;5102157;28;20024;-41
2021/12/27 12:14:39;;;;;;;6.32;5.72;;;17.60;65.00;;;;;;5102375;28;20032;-41
2021/12/27 12:17:07;;;;;;;6.78;5.30;;;17.60;65.00;;;;;;5102177;28;20028;-41
2021/12/27 12:19:40;;;;;;;6.22;5.32;;;17.60;65.00;;;;;;5102358;28;20039;-41
2021/12/27 12:22:06;;;;;;;6.50;5.30;;;17.50;65.00;;;;;;5101841;28;20045;-40
2021/12/27 12:24:32;;;;;;;6.63;5.60;;;17.50;65.00;;;;;;5119361;28;20035;-41
2021/12/27 12:27:01;;;;;;;6.28;5.43;;;17.60;65.00;;;;;;5122584;28;20042;-41
2021/12/27 12:29:43;;;;;;;5.90;5.13;;;17.60;65.00;;;;;;5122290;28;20015;-41
2021/12/27 12:32:11;;;;;;;5.90;5.22;;;17.50;64.90;;;;;;5125059;28;20036;-40
2021/12/27 12:34:38;;;;;;;5.80;5.13;;;17.50;64.90;;;;;;5125578;28;20024;-41
2021/12/27 12:37:12;;;;;;;5.93;5.05;;;17.50;64.90;;;;;;5126336;28;20027;-41
2021/12/27 12:39:43;;;;;;;5.55;5.05;;;17.50;65.00;;;;;;5113426;28;20549;-41
2021/12/27 12:42:17;;;;;;;6.57;5.05;;;17.50;65.00;;;;;;5105763;28;20092;-41
2021/12/27 12:44:47;;;;;;;6.88;5.55;;;17.50;65.00;;;;;;5113750;28;20056;-42
2021/12/27 12:47:13;;;;;;;5.95;5.35;;;17.50;64.90;;;;;;5126094;28;20056;-40
2021/12/27 12:49:39;;;;;;;5.80;5.10;;;17.50;65.00;;;;;;5125948;28;20024;-41
2021/12/27 12:52:06;;;;;;;5.40;4.90;;;17.50;65.00;;;;;;5125892;28;20051;-40
2021/12/27 12:54:34;;;;;;;6.55;5.18;;;17.50;65.00;;;;;;5125581;28;20022;-41
2021/12/27 12:57:10;;;;;;;5.97;5.35;;;17.50;65.00;;;;;;5125628;28;20131;-41